Time;durP1;ratioP1;P1;durP2;ratioP2;P2;SDS_P1;SDS_P2;PMS_P1;PMS_P2;Temp;Humidity;BMP_temperature;BMP_pressure;BME280_temperature;BME280_humidity;BME280_pressure;Samples;Min_cycle;Max_cycle;Signal;HPM_P1;HPM_P2
2023/05/29 00:01:26;;;;;;;1999.90;999.90;;;;;;;;;;4912597;29;20744;-71
2023/05/29 00:04:12;;;;;;;1999.90;999.90;;;;;;;;;;4893025;29;20730;-71
2023/05/29 00:06:57;;;;;;;1999.90;999.90;;;;;;;;;;4897109;29;20355;-71
2023/05/29 00:09:43;;;;;;;1999.90;999.90;;;;;;;;;;4906333;29;20220;-71
2023/05/29 00:12:28;;;;;;;1999.90;999.90;;;;;;;;;;4895352;29;20225;-71
2023/05/29 00:15:13;;;;;;;1999.90;999.90;;;;;;;;;;4898425;29;20941;-71
2023/05/29 00:17:58;;;;;;;1999.90;999.90;;;;;;;;;;4902486;29;20322;-69
2023/05/29 00:20:43;;;;;;;1999.90;999.90;;;;;;;;;;4881356;29;20233;-70
2023/05/29 00:23:28;;;;;;;1999.90;999.90;;;;;;;;;;4892373;29;20270;-71
2023/05/29 00:26:16;;;;;;;1999.90;999.90;;;;;;;;;;4898886;29;20289;-70
2023/05/29 00:29:01;;;;;;;1999.90;999.90;;;;;;;;;;4908632;29;20233;-70
2023/05/29 00:31:46;;;;;;;1999.90;999.90;;;;;;;;;;4908240;29;20230;-71
2023/05/29 00:34:31;;;;;;;1999.90;999.90;;;;;;;;;;4901598;29;20230;-71
2023/05/29 00:37:16;;;;;;;1999.90;999.90;;;;;;;;;;4882898;29;20225;-70
2023/05/29 00:40:01;;;;;;;1999.90;999.90;;;;;;;;;;4905615;29;20703;-71
2023/05/29 00:42:47;;;;;;;1999.90;999.90;;;;;;;;;;4897940;29;20334;-71
2023/05/29 00:45:36;;;;;;;1999.90;999.90;;;;;;;;;;4912424;29;20212;-71
2023/05/29 00:48:21;;;;;;;1999.90;999.90;;;;;;;;;;4898162;29;20424;-71
2023/05/29 00:51:06;;;;;;;1999.90;999.90;;;;;;;;;;4913221;29;20315;-71
2023/05/29 00:53:51;;;;;;;1999.90;999.90;;;;;;;;;;4909010;29;20229;-71
2023/05/29 00:56:36;;;;;;;1999.90;999.90;;;;;;;;;;4911888;29;20719;-71
2023/05/29 00:59:23;;;;;;;1999.90;999.90;;;;;;;;;;4904240;29;20210;-71
2023/05/29 01:02:08;;;;;;;1999.90;999.90;;;;;;;;;;4906601;29;20398;-71
2023/05/29 01:04:54;;;;;;;1999.90;999.90;;;;;;;;;;4914694;29;20224;-71
2023/05/29 01:07:39;;;;;;;1999.90;999.90;;;;;;;;;;4902198;29;20206;-71
2023/05/29 01:10:25;;;;;;;1999.90;999.90;;;;;;;;;;4878288;29;20249;-71
2023/05/29 01:13:12;;;;;;;1999.90;999.90;;;;;;;;;;4897803;29;20207;-71
2023/05/29 01:16:01;;;;;;;1999.90;999.90;;;;;;;;;;4893080;29;20221;-71
2023/05/29 01:18:50;;;;;;;1999.90;999.90;;;;;;;;;;4908449;29;20709;-71
2023/05/29 01:21:43;;;;;;;1999.90;999.90;;;;;;;;;;4902578;29;20350;-70
2023/05/29 01:24:33;;;;;;;1999.90;999.90;;;;;;;;;;4905645;29;20211;-71
2023/05/29 01:27:21;;;;;;;1999.90;999.90;;;;;;;;;;4898547;29;20207;-71
2023/05/29 01:30:08;;;;;;;1999.90;999.90;;;;;;;;;;4910667;29;20222;-71
2023/05/29 01:32:53;;;;;;;1999.90;999.90;;;;;;;;;;4906192;29;20602;-71
2023/05/29 01:35:38;;;;;;;1999.90;999.90;;;;;;;;;;4905104;29;20711;-70
2023/05/29 01:38:23;;;;;;;1999.90;999.90;;;;;;;;;;4900897;29;20288;-71
2023/05/29 01:41:08;;;;;;;1999.90;999.90;;;;;;;;;;4907498;29;20233;-71
2023/05/29 01:43:55;;;;;;;1999.90;999.90;;;;;;;;;;4913797;29;20229;-71
2023/05/29 01:46:41;;;;;;;1999.90;999.90;;;;;;;;;;4901952;29;20230;-70
2023/05/29 01:49:27;;;;;;;1999.90;999.90;;;;;;;;;;4877949;29;20215;-71
2023/05/29 01:52:12;;;;;;;1999.90;999.90;;;;;;;;;;4898186;29;20242;-71
2023/05/29 01:54:57;;;;;;;1999.90;999.90;;;;;;;;;;4903157;29;20214;-71
2023/05/29 01:57:42;;;;;;;1999.90;999.90;;;;;;;;;;4907223;29;20463;-70
2023/05/29 02:00:30;;;;;;;1999.90;999.90;;;;;;;;;;4903440;29;20724;-71
2023/05/29 02:03:14;;;;;;;1999.90;999.90;;;;;;;;;;4908459;29;20734;-71
2023/05/29 02:06:00;;;;;;;1999.90;999.90;;;;;;;;;;4899781;29;20219;-71
2023/05/29 02:08:46;;;;;;;1999.90;999.90;;;;;;;;;;4895948;29;20233;-71
2023/05/29 02:11:31;;;;;;;1999.90;999.90;;;;;;;;;;4898707;29;20791;-70
2023/05/29 02:14:15;;;;;;;1999.90;999.90;;;;;;;;;;4881158;29;20221;-70
2023/05/29 02:17:02;;;;;;;1999.90;999.90;;;;;;;;;;4906102;29;20232;-71
2023/05/29 02:19:47;;;;;;;1999.90;999.90;;;;;;;;;;4911703;29;20236;-71
2023/05/29 02:22:32;;;;;;;1999.90;999.90;;;;;;;;;;4910337;29;20210;-71
2023/05/29 02:25:17;;;;;;;1999.90;999.90;;;;;;;;;;4897951;29;20222;-70
2023/05/29 02:28:02;;;;;;;1999.90;999.90;;;;;;;;;;4907331;29;20292;-71
2023/05/29 02:30:47;;;;;;;1999.90;999.90;;;;;;;;;;4904673;29;20242;-71
2023/05/29 02:33:33;;;;;;;1999.90;999.90;;;;;;;;;;4876687;29;20515;-69
2023/05/29 02:36:18;;;;;;;1999.90;999.90;;;;;;;;;;4907687;29;20210;-71
2023/05/29 02:39:03;;;;;;;1999.90;999.90;;;;;;;;;;4908637;29;20276;-71
2023/05/29 02:41:49;;;;;;;1999.90;999.90;;;;;;;;;;4907334;29;20234;-71
2023/05/29 02:44:34;;;;;;;1999.90;999.90;;;;;;;;;;4906985;29;20209;-71
2023/05/29 02:47:18;;;;;;;1999.90;999.90;;;;;;;;;;4908106;29;20736;-70
2023/05/29 02:50:05;;;;;;;1999.90;999.90;;;;;;;;;;4907953;29;20216;-70
2023/05/29 02:52:50;;;;;;;1999.90;999.90;;;;;;;;;;4915900;29;20270;-71
2023/05/29 02:55:35;;;;;;;1999.90;999.90;;;;;;;;;;4905812;29;20707;-70
2023/05/29 02:58:21;;;;;;;1999.90;999.90;;;;;;;;;;4880503;29;20230;-71
2023/05/29 03:01:06;;;;;;;1999.90;999.90;;;;;;;;;;4903153;29;20653;-71
2023/05/29 03:03:51;;;;;;;1999.90;999.90;;;;;;;;;;4900118;29;20243;-70
2023/05/29 03:06:38;;;;;;;1999.90;999.90;;;;;;;;;;4909881;29;20209;-70
2023/05/29 03:09:23;;;;;;;1999.90;999.90;;;;;;;;;;4897069;29;20710;-71
2023/05/29 03:12:08;;;;;;;1999.90;999.90;;;;;;;;;;4904001;29;20287;-71
2023/05/29 03:14:53;;;;;;;1999.90;999.90;;;;;;;;;;4904657;29;20610;-70
2023/05/29 03:17:38;;;;;;;1999.90;999.90;;;;;;;;;;4906080;29;20845;-71
2023/05/29 03:20:23;;;;;;;1999.90;999.90;;;;;;;;;;4900314;29;20241;-69
2023/05/29 03:23:10;;;;;;;1999.90;999.90;;;;;;;;;;4908539;29;20412;-70
2023/05/29 03:25:55;;;;;;;1999.90;999.90;;;;;;;;;;4915878;29;20213;-71
2023/05/29 03:28:40;;;;;;;1999.90;999.90;;;;;;;;;;4918278;29;20221;-71
2023/05/29 03:31:25;;;;;;;1999.90;999.90;;;;;;;;;;4918210;29;20327;-71
2023/05/29 03:34:09;;;;;;;1999.90;999.90;;;;;;;;;;4898040;29;20745;-71
2023/05/29 03:36:54;;;;;;;1999.90;999.90;;;;;;;;;;4892984;29;20215;-70
2023/05/29 03:39:41;;;;;;;1999.90;999.90;;;;;;;;;;4899616;29;20218;-69
2023/05/29 03:42:25;;;;;;;1999.90;999.90;;;;;;;;;;4897339;29;20675;-69
2023/05/29 03:45:11;;;;;;;1999.90;999.90;;;;;;;;;;4911490;29;20274;-70
2023/05/29 03:47:56;;;;;;;1999.90;999.90;;;;;;;;;;4905095;29;20218;-70
2023/05/29 03:50:41;;;;;;;1999.90;999.90;;;;;;;;;;4912718;29;20237;-68
2023/05/29 03:53:26;;;;;;;1999.90;999.90;;;;;;;;;;4915860;29;20213;-69
2023/05/29 03:56:12;;;;;;;1999.90;999.90;;;;;;;;;;4903844;29;20206;-68
2023/05/29 03:58:57;;;;;;;1999.90;999.90;;;;;;;;;;4891715;29;20257;-66
2023/05/29 04:01:42;;;;;;;1999.90;999.90;;;;;;;;;;4898666;29;20252;-69
2023/05/29 04:04:27;;;;;;;1999.90;999.90;;;;;;;;;;4900435;29;20216;-68
2023/05/29 04:07:12;;;;;;;1999.90;999.90;;;;;;;;;;4906449;29;20217;-67
2023/05/29 04:09:57;;;;;;;1999.90;999.90;;;;;;;;;;4907396;29;20238;-69
2023/05/29 04:12:43;;;;;;;1999.90;999.90;;;;;;;;;;4907287;29;20292;-69
2023/05/29 04:15:28;;;;;;;1999.90;999.90;;;;;;;;;;4897217;29;20440;-69
2023/05/29 04:18:13;;;;;;;1999.90;999.90;;;;;;;;;;4894395;29;20234;-69
2023/05/29 04:20:58;;;;;;;1999.90;999.90;;;;;;;;;;4909424;29;20238;-69
2023/05/29 04:23:43;;;;;;;1999.90;999.90;;;;;;;;;;4909388;29;20218;-69
2023/05/29 04:26:28;;;;;;;1999.90;999.90;;;;;;;;;;4905173;29;20233;-69
2023/05/29 04:29:14;;;;;;;1999.90;999.90;;;;;;;;;;4904158;29;20210;-69
2023/05/29 04:32:02;;;;;;;1999.90;999.90;;;;;;;;;;4915151;29;20238;-68
2023/05/29 04:34:47;;;;;;;1999.90;999.90;;;;;;;;;;4901486;29;20418;-69
2023/05/29 04:37:37;;;;;;;1999.90;999.90;;;;;;;;;;4879234;29;20215;-69
2023/05/29 04:40:22;;;;;;;1999.90;999.90;;;;;;;;;;4898739;29;20285;-69
2023/05/29 04:43:07;;;;;;;1999.90;999.90;;;;;;;;;;4892664;29;20211;-69
2023/05/29 04:45:53;;;;;;;1999.90;999.90;;;;;;;;;;4909146;29;20234;-69
2023/05/29 04:48:40;;;;;;;1999.90;999.90;;;;;;;;;;4902019;29;20212;-69
2023/05/29 04:51:25;;;;;;;1999.90;999.90;;;;;;;;;;4903509;29;20609;-69
2023/05/29 04:54:10;;;;;;;1999.90;999.90;;;;;;;;;;4907728;29;20261;-69
2023/05/29 04:56:55;;;;;;;1999.90;999.90;;;;;;;;;;4912173;29;20221;-70
2023/05/29 04:59:41;;;;;;;1999.90;999.90;;;;;;;;;;4908367;29;20369;-69
2023/05/29 05:02:27;;;;;;;1999.90;999.90;;;;;;;;;;4903863;29;20218;-69
2023/05/29 05:05:12;;;;;;;1999.90;999.90;;;;;;;;;;4908831;29;20232;-69
2023/05/29 05:07:57;;;;;;;1999.90;999.90;;;;;;;;;;4907599;29;20452;-69
2023/05/29 05:10:42;;;;;;;1999.90;999.90;;;;;;;;;;4899635;29;20769;-69
2023/05/29 05:13:27;;;;;;;1999.90;999.90;;;;;;;;;;4905279;29;20218;-68
2023/05/29 05:16:12;;;;;;;1999.90;999.90;;;;;;;;;;4912762;29;20926;-69
2023/05/29 05:18:58;;;;;;;1999.90;999.90;;;;;;;;;;4913704;29;20316;-69
2023/05/29 05:21:43;;;;;;;1999.90;999.90;;;;;;;;;;4916252;29;20237;-69
2023/05/29 05:24:28;;;;;;;1999.90;999.90;;;;;;;;;;4916200;29;20216;-70
2023/05/29 05:27:13;;;;;;;1999.90;999.90;;;;;;;;;;4915461;29;20447;-69
2023/05/29 05:29:58;;;;;;;1999.90;999.90;;;;;;;;;;4916052;29;20209;-69
2023/05/29 05:32:43;;;;;;;1999.90;999.90;;;;;;;;;;4916344;29;20213;-69
2023/05/29 05:35:29;;;;;;;1999.90;999.90;;;;;;;;;;4916259;29;20217;-71
2023/05/29 05:38:14;;;;;;;1999.90;999.90;;;;;;;;;;4897668;29;20226;-69
2023/05/29 05:40:58;;;;;;;1999.90;999.90;;;;;;;;;;4897361;29;20234;-69
2023/05/29 05:43:43;;;;;;;1999.90;999.90;;;;;;;;;;4897265;29;20217;-70
2023/05/29 05:46:28;;;;;;;1999.90;999.90;;;;;;;;;;4897183;29;20286;-69
2023/05/29 05:49:13;;;;;;;1999.90;999.90;;;;;;;;;;4897079;29;20239;-69
2023/05/29 05:52:00;;;;;;;1999.90;999.90;;;;;;;;;;4897075;29;20296;-69
2023/05/29 05:54:44;;;;;;;1999.90;999.90;;;;;;;;;;4897051;29;20214;-69
2023/05/29 05:57:32;;;;;;;1999.90;999.90;;;;;;;;;;4893179;29;20210;-68
2023/05/29 06:00:17;;;;;;;1999.90;999.90;;;;;;;;;;4888394;29;20429;-69
2023/05/29 06:03:03;;;;;;;1999.90;999.90;;;;;;;;;;4898107;29;20769;-67
2023/05/29 06:05:48;;;;;;;1999.90;999.90;;;;;;;;;;4898844;29;20215;-69
2023/05/29 06:08:34;;;;;;;1999.90;999.90;;;;;;;;;;4892257;29;20210;-69
2023/05/29 06:11:19;;;;;;;1999.90;999.90;;;;;;;;;;4898876;29;20241;-69
2023/05/29 06:14:04;;;;;;;1999.90;999.90;;;;;;;;;;4894318;29;20211;-69
2023/05/29 06:16:49;;;;;;;1999.90;999.90;;;;;;;;;;4902305;29;20262;-69
2023/05/29 06:19:34;;;;;;;1999.90;999.90;;;;;;;;;;4891610;29;20441;-69
2023/05/29 06:22:19;;;;;;;1999.90;999.90;;;;;;;;;;4896982;29;20206;-69
2023/05/29 06:25:06;;;;;;;1999.90;999.90;;;;;;;;;;4901845;29;20238;-71
2023/05/29 06:27:51;;;;;;;1999.90;999.90;;;;;;;;;;4904086;29;20218;-70
2023/05/29 06:30:36;;;;;;;1999.90;999.90;;;;;;;;;;4904612;29;20230;-69
2023/05/29 06:33:21;;;;;;;1999.90;999.90;;;;;;;;;;4902503;29;20218;-69
2023/05/29 06:36:06;;;;;;;1999.90;999.90;;;;;;;;;;4903354;29;20211;-69
2023/05/29 06:38:52;;;;;;;1999.90;999.90;;;;;;;;;;4915658;29;20611;-69
2023/05/29 06:41:38;;;;;;;1999.90;999.90;;;;;;;;;;4914397;29;20231;-68
2023/05/29 06:44:23;;;;;;;1999.90;999.90;;;;;;;;;;4919140;29;20262;-69
2023/05/29 06:47:08;;;;;;;1999.90;999.90;;;;;;;;;;4904430;29;20211;-70
2023/05/29 06:49:53;;;;;;;1999.90;999.90;;;;;;;;;;4915531;29;20210;-68
2023/05/29 06:52:38;;;;;;;1999.90;999.90;;;;;;;;;;4918778;29;20836;-70
2023/05/29 06:55:22;;;;;;;1999.90;999.90;;;;;;;;;;4903544;29;20225;-70
2023/05/29 06:58:09;;;;;;;1999.90;999.90;;;;;;;;;;4902371;29;20589;-69
2023/05/29 07:00:54;;;;;;;1999.90;999.90;;;;;;;;;;4909124;29;20249;-70
2023/05/29 07:03:38;;;;;;;1999.90;999.90;;;;;;;;;;4906781;29;20686;-70
2023/05/29 07:06:23;;;;;;;1999.90;999.90;;;;;;;;;;4895643;29;20214;-70
2023/05/29 07:09:08;;;;;;;1999.90;999.90;;;;;;;;;;4900241;29;20295;-70
2023/05/29 07:11:53;;;;;;;1999.90;999.90;;;;;;;;;;4904052;29;20750;-69
2023/05/29 07:14:39;;;;;;;1999.90;999.90;;;;;;;;;;4911051;29;20856;-68
2023/05/29 07:17:24;;;;;;;1999.90;999.90;;;;;;;;;;4898738;29;20214;-69
2023/05/29 07:20:10;;;;;;;1999.90;999.90;;;;;;;;;;4898364;29;20748;-69
2023/05/29 07:22:55;;;;;;;1999.90;999.90;;;;;;;;;;4896163;29;20238;-69
2023/05/29 07:25:40;;;;;;;1999.90;999.90;;;;;;;;;;4901752;29;20689;-70
2023/05/29 07:28:25;;;;;;;1999.90;999.90;;;;;;;;;;4911690;29;20206;-68
2023/05/29 07:31:11;;;;;;;1999.90;999.90;;;;;;;;;;4910818;29;20237;-69
2023/05/29 07:33:56;;;;;;;1999.90;999.90;;;;;;;;;;4915716;29;20210;-69
2023/05/29 07:36:57;;;;;;;1999.90;999.90;;;;;;;;;;4904372;29;20267;-69
2023/05/29 07:39:42;;;;;;;1999.90;999.90;;;;;;;;;;4880020;29;20235;-70
2023/05/29 07:42:27;;;;;;;1999.90;999.90;;;;;;;;;;4903915;29;20358;-69
2023/05/29 07:45:12;;;;;;;1999.90;999.90;;;;;;;;;;4901694;29;21004;-70
2023/05/29 07:47:58;;;;;;;1999.90;999.90;;;;;;;;;;4903808;29;20693;-69
2023/05/29 07:50:43;;;;;;;1999.90;999.90;;;;;;;;;;4905532;29;20234;-69
2023/05/29 07:53:28;;;;;;;1999.90;999.90;;;;;;;;;;4905667;29;20606;-70
2023/05/29 07:56:13;;;;;;;1999.90;999.90;;;;;;;;;;4901471;29;20768;-70
2023/05/29 07:58:59;;;;;;;1999.90;999.90;;;;;;;;;;4908837;29;20235;-69
2023/05/29 08:01:44;;;;;;;1999.90;999.90;;;;;;;;;;4902418;29;20734;-70
2023/05/29 08:04:31;;;;;;;1999.90;999.90;;;;;;;;;;4895404;29;20215;-70
2023/05/29 08:07:16;;;;;;;1999.90;999.90;;;;;;;;;;4907769;29;20206;-70
2023/05/29 08:10:00;;;;;;;1999.90;999.90;;;;;;;;;;4912387;29;20247;-70
2023/05/29 08:12:45;;;;;;;1999.90;999.90;;;;;;;;;;4897454;29;20226;-69
2023/05/29 08:15:31;;;;;;;1999.90;999.90;;;;;;;;;;4903312;29;20618;-70
2023/05/29 08:18:16;;;;;;;1999.90;999.90;;;;;;;;;;4903942;29;20217;-69
2023/05/29 08:21:02;;;;;;;1999.90;999.90;;;;;;;;;;4895555;29;20255;-69
2023/05/29 08:23:48;;;;;;;1999.90;999.90;;;;;;;;;;4899327;29;20215;-69
2023/05/29 08:26:33;;;;;;;1999.90;999.90;;;;;;;;;;4898402;29;20211;-70
2023/05/29 08:29:17;;;;;;;1999.90;999.90;;;;;;;;;;4900993;29;20214;-69
2023/05/29 08:32:02;;;;;;;1999.90;999.90;;;;;;;;;;4905379;29;20315;-70
2023/05/29 08:34:48;;;;;;;1999.90;999.90;;;;;;;;;;4905773;29;20488;-70
2023/05/29 08:37:34;;;;;;;1999.90;999.90;;;;;;;;;;4908108;29;20213;-67
2023/05/29 08:40:20;;;;;;;1999.90;999.90;;;;;;;;;;4905114;29;20293;-69
2023/05/29 08:43:09;;;;;;;1999.90;999.90;;;;;;;;;;4912125;29;20216;-70
2023/05/29 08:45:55;;;;;;;1999.90;999.90;;;;;;;;;;4906227;29;20217;-69
2023/05/29 08:48:41;;;;;;;1999.90;999.90;;;;;;;;;;4898696;29;20207;-70
2023/05/29 08:51:31;;;;;;;1999.90;999.90;;;;;;;;;;4905488;29;20300;-69
2023/05/29 08:54:17;;;;;;;1999.90;999.90;;;;;;;;;;4896710;29;20448;-70
2023/05/29 08:57:03;;;;;;;1999.90;999.90;;;;;;;;;;4897102;29;20315;-69
2023/05/29 08:59:51;;;;;;;1999.90;999.90;;;;;;;;;;4896479;29;20228;-69
2023/05/29 09:02:37;;;;;;;1999.90;999.90;;;;;;;;;;4892684;29;20221;-69
2023/05/29 09:05:22;;;;;;;1999.90;999.90;;;;;;;;;;4902961;29;20706;-69
2023/05/29 09:08:07;;;;;;;1999.90;999.90;;;;;;;;;;4905572;29;20239;-70
2023/05/29 09:10:53;;;;;;;1999.90;999.90;;;;;;;;;;4900353;29;20234;-70
2023/05/29 09:13:38;;;;;;;1999.90;999.90;;;;;;;;;;4904135;29;20590;-69
2023/05/29 09:16:23;;;;;;;1999.90;999.90;;;;;;;;;;4905931;29;20231;-67
2023/05/29 09:19:08;;;;;;;1999.90;999.90;;;;;;;;;;4902361;29;20230;-69
2023/05/29 09:22:00;;;;;;;1999.90;999.90;;;;;;;;;;4898042;29;20278;-69
2023/05/29 09:24:47;;;;;;;1999.90;999.90;;;;;;;;;;4904552;29;20204;-69
2023/05/29 09:27:33;;;;;;;1999.90;999.90;;;;;;;;;;4898185;29;20467;-70
2023/05/29 09:30:31;;;;;;;1999.90;999.90;;;;;;;;;;4901581;29;20229;-69
2023/05/29 09:33:17;;;;;;;1999.90;999.90;;;;;;;;;;4898042;29;20216;-69
2023/05/29 09:36:02;;;;;;;1999.90;999.90;;;;;;;;;;4899613;29;20223;-70
2023/05/29 09:38:47;;;;;;;1999.90;999.90;;;;;;;;;;4902905;29;20304;-69
2023/05/29 09:41:32;;;;;;;1999.90;999.90;;;;;;;;;;4897060;29;20234;-69
2023/05/29 09:44:19;;;;;;;1999.90;999.90;;;;;;;;;;4900238;29;20842;-68
2023/05/29 09:47:05;;;;;;;1999.90;999.90;;;;;;;;;;4898028;29;20211;-69
2023/05/29 09:49:51;;;;;;;1999.90;999.90;;;;;;;;;;4897991;29;20214;-68
2023/05/29 09:52:36;;;;;;;1999.90;999.90;;;;;;;;;;4905793;29;20756;-69
2023/05/29 09:55:21;;;;;;;1999.90;999.90;;;;;;;;;;4900749;29;20207;-69
2023/05/29 09:58:07;;;;;;;1999.90;999.90;;;;;;;;;;4892819;29;20307;-67
2023/05/29 10:00:54;;;;;;;1999.90;999.90;;;;;;;;;;4902264;29;20367;-68
2023/05/29 10:03:39;;;;;;;1999.90;999.90;;;;;;;;;;4896939;29;20223;-69
2023/05/29 10:06:24;;;;;;;1999.90;999.90;;;;;;;;;;4894937;29;20287;-69
2023/05/29 10:09:11;;;;;;;1999.90;999.90;;;;;;;;;;4905652;29;20213;-69
2023/05/29 10:12:00;;;;;;;1999.90;999.90;;;;;;;;;;4893851;29;20254;-71
2023/05/29 10:14:46;;;;;;;1999.90;999.90;;;;;;;;;;4904887;29;20649;-67
2023/05/29 10:17:34;;;;;;;1999.90;999.90;;;;;;;;;;4906225;29;20523;-70
2023/05/29 10:20:21;;;;;;;1999.90;999.90;;;;;;;;;;4898882;29;20806;-70
2023/05/29 10:23:07;;;;;;;1999.90;999.90;;;;;;;;;;4896310;29;20214;-71
2023/05/29 10:25:53;;;;;;;1999.90;999.90;;;;;;;;;;4898560;29;20212;-70
2023/05/29 10:28:41;;;;;;;1999.90;999.90;;;;;;;;;;4901518;29;20588;-69
2023/05/29 10:31:30;;;;;;;1999.90;999.90;;;;;;;;;;4895415;29;20250;-70
2023/05/29 10:34:23;;;;;;;1999.90;999.90;;;;;;;;;;4906234;29;20232;-70
2023/05/29 10:37:10;;;;;;;1999.90;999.90;;;;;;;;;;4895136;29;20212;-70
2023/05/29 10:40:04;;;;;;;1999.90;999.90;;;;;;;;;;4895763;29;20224;-70
2023/05/29 10:42:52;;;;;;;1999.90;999.90;;;;;;;;;;4897803;29;20228;-69
2023/05/29 10:45:51;;;;;;;1999.90;999.90;;;;;;;;;;4899056;29;20223;-71
2023/05/29 10:48:40;;;;;;;1999.90;999.90;;;;;;;;;;4900283;29;20623;-70
2023/05/29 10:51:27;;;;;;;1999.90;999.90;;;;;;;;;;4903907;29;20228;-71
2023/05/29 10:54:13;;;;;;;1999.90;999.90;;;;;;;;;;4902648;29;20228;-71
2023/05/29 10:57:00;;;;;;;1999.90;999.90;;;;;;;;;;4909342;29;20723;-71
2023/05/29 10:59:45;;;;;;;1999.90;999.90;;;;;;;;;;4908406;29;20592;-71
2023/05/29 11:02:31;;;;;;;1999.90;999.90;;;;;;;;;;4903083;29;20297;-70
2023/05/29 11:05:19;;;;;;;1999.90;999.90;;;;;;;;;;4886413;29;20292;-71
2023/05/29 11:08:06;;;;;;;1999.90;999.90;;;;;;;;;;4905719;29;20215;-70
2023/05/29 11:10:58;;;;;;;1999.90;999.90;;;;;;;;;;4901598;29;20827;-71
2023/05/29 11:13:52;;;;;;;1999.90;999.90;;;;;;;;;;4902859;29;20224;-71
2023/05/29 11:16:37;;;;;;;1999.90;999.90;;;;;;;;;;4908736;29;20412;-71
2023/05/29 11:19:23;;;;;;;1999.90;999.90;;;;;;;;;;4914517;29;20254;-71
2023/05/29 11:22:11;;;;;;;1999.90;999.90;;;;;;;;;;4906455;29;20235;-70
2023/05/29 11:24:58;;;;;;;1999.90;999.90;;;;;;;;;;4899768;29;20206;-71
2023/05/29 11:27:45;;;;;;;1999.90;999.90;;;;;;;;;;4893641;29;20218;-70
2023/05/29 11:30:30;;;;;;;1999.90;999.90;;;;;;;;;;4905668;29;20226;-70
2023/05/29 11:33:23;;;;;;;1999.90;999.90;;;;;;;;;;4909386;29;20412;-71
2023/05/29 11:36:10;;;;;;;1999.90;999.90;;;;;;;;;;4898673;29;20450;-70
2023/05/29 11:38:55;;;;;;;1999.90;999.90;;;;;;;;;;4907486;29;20582;-71
2023/05/29 11:41:41;;;;;;;1999.90;999.90;;;;;;;;;;4898877;29;20380;-71
2023/05/29 11:44:27;;;;;;;1999.90;999.90;;;;;;;;;;4899301;29;20575;-71
2023/05/29 11:47:12;;;;;;;1999.90;999.90;;;;;;;;;;4899296;29;20579;-71
2023/05/29 11:49:56;;;;;;;1999.90;999.90;;;;;;;;;;4898943;29;20214;-70
2023/05/29 11:52:46;;;;;;;1999.90;999.90;;;;;;;;;;4899242;29;20216;-71
2023/05/29 11:55:31;;;;;;;1999.90;999.90;;;;;;;;;;4899180;29;20252;-71
2023/05/29 11:58:17;;;;;;;1999.90;999.90;;;;;;;;;;4898942;29;20700;-71
2023/05/29 12:01:02;;;;;;;1999.90;999.90;;;;;;;;;;4899079;29;20236;-71
2023/05/29 12:03:47;;;;;;;1999.90;999.90;;;;;;;;;;4898783;29;20223;-71
2023/05/29 12:06:33;;;;;;;1999.90;999.90;;;;;;;;;;4899009;29;20218;-71
2023/05/29 12:09:26;;;;;;;1999.90;999.90;;;;;;;;;;4898606;29;20293;-70
2023/05/29 12:12:11;;;;;;;1999.90;999.90;;;;;;;;;;4898713;29;20336;-71
2023/05/29 12:14:58;;;;;;;1999.90;999.90;;;;;;;;;;4898681;29;20226;-71
2023/05/29 12:17:43;;;;;;;1999.90;999.90;;;;;;;;;;4898787;29;20237;-72
2023/05/29 12:20:29;;;;;;;1999.90;999.90;;;;;;;;;;4898103;29;20746;-72
2023/05/29 12:23:14;;;;;;;1999.90;999.90;;;;;;;;;;4898661;29;20591;-71
2023/05/29 12:25:59;;;;;;;1999.90;999.90;;;;;;;;;;4898234;29;21011;-71
2023/05/29 12:28:45;;;;;;;1999.90;999.90;;;;;;;;;;4898459;29;20210;-71
2023/05/29 12:31:32;;;;;;;1999.90;999.90;;;;;;;;;;4898315;29;20257;-71
2023/05/29 12:34:19;;;;;;;1999.90;999.90;;;;;;;;;;4898476;29;20207;-71
2023/05/29 12:37:08;;;;;;;1999.90;999.90;;;;;;;;;;4898433;29;20239;-71
2023/05/29 12:40:08;;;;;;;1999.90;999.90;;;;;;;;;;4898081;29;20213;-71
2023/05/29 12:42:55;;;;;;;1999.90;999.90;;;;;;;;;;4897934;29;20696;-71
2023/05/29 12:45:40;;;;;;;1999.90;999.90;;;;;;;;;;4898007;29;20213;-71
2023/05/29 12:48:28;;;;;;;1999.90;999.90;;;;;;;;;;4898257;29;20294;-71
2023/05/29 12:51:13;;;;;;;1999.90;999.90;;;;;;;;;;4897987;29;20223;-71
2023/05/29 12:53:58;;;;;;;1999.90;999.90;;;;;;;;;;4898071;29;20209;-71
2023/05/29 12:56:44;;;;;;;1999.90;999.90;;;;;;;;;;4897979;29;20216;-71
2023/05/29 12:59:30;;;;;;;1999.90;999.90;;;;;;;;;;4897545;29;20760;-70
2023/05/29 13:02:15;;;;;;;1999.90;999.90;;;;;;;;;;4897839;29;20241;-71
2023/05/29 13:05:02;;;;;;;1999.90;999.90;;;;;;;;;;4897935;29;20212;-71
2023/05/29 13:07:47;;;;;;;1999.90;999.90;;;;;;;;;;4897626;29;20721;-71
2023/05/29 13:10:34;;;;;;;1999.90;999.90;;;;;;;;;;4897225;29;20301;-73
2023/05/29 13:13:20;;;;;;;1999.90;999.90;;;;;;;;;;4897953;29;20678;-71
2023/05/29 13:16:05;;;;;;;1999.90;999.90;;;;;;;;;;4897752;29;20261;-71
2023/05/29 13:18:50;;;;;;;1999.90;999.90;;;;;;;;;;4896921;29;20417;-70
2023/05/29 13:21:36;;;;;;;1999.90;999.90;;;;;;;;;;4897443;29;20452;-71
2023/05/29 13:24:21;;;;;;;1999.90;999.90;;;;;;;;;;4897572;29;20281;-71
2023/05/29 13:27:06;;;;;;;1999.90;999.90;;;;;;;;;;4897479;29;20233;-69
2023/05/29 13:29:51;;;;;;;1999.90;999.90;;;;;;;;;;4897035;29;20345;-70
2023/05/29 13:32:36;;;;;;;1999.90;999.90;;;;;;;;;;4897367;29;20209;-71
2023/05/29 13:35:21;;;;;;;1999.90;999.90;;;;;;;;;;4897340;29;20235;-70
2023/05/29 13:38:08;;;;;;;1999.90;999.90;;;;;;;;;;4897219;29;20706;-71
2023/05/29 13:40:53;;;;;;;1999.90;999.90;;;;;;;;;;4896960;29;20659;-71
2023/05/29 13:43:38;;;;;;;1999.90;999.90;;;;;;;;;;4896930;29;20740;-71
2023/05/29 13:46:23;;;;;;;1999.90;999.90;;;;;;;;;;4897252;29;20619;-71
2023/05/29 13:49:08;;;;;;;1999.90;999.90;;;;;;;;;;4896872;29;20690;-71
2023/05/29 13:51:53;;;;;;;1999.90;999.90;;;;;;;;;;4896179;29;20417;-71
2023/05/29 13:54:39;;;;;;;1999.90;999.90;;;;;;;;;;4896935;29;20530;-71
2023/05/29 13:57:25;;;;;;;1999.90;999.90;;;;;;;;;;4896746;29;20301;-71
2023/05/29 14:00:11;;;;;;;1999.90;999.90;;;;;;;;;;4896624;29;20206;-71
2023/05/29 14:02:56;;;;;;;1999.90;999.90;;;;;;;;;;4897012;29;20296;-72
2023/05/29 14:05:41;;;;;;;1999.90;999.90;;;;;;;;;;4897012;29;20246;-72
2023/05/29 14:08:25;;;;;;;1999.90;999.90;;;;;;;;;;4896792;29;20216;-71
2023/05/29 14:11:12;;;;;;;1999.90;999.90;;;;;;;;;;4895828;29;20437;-71
2023/05/29 14:13:57;;;;;;;1999.90;999.90;;;;;;;;;;4896632;29;20209;-70
2023/05/29 14:16:42;;;;;;;1999.90;999.90;;;;;;;;;;4896898;29;20217;-72
2023/05/29 14:19:27;;;;;;;1999.90;999.90;;;;;;;;;;4896896;29;20297;-71
2023/05/29 14:22:12;;;;;;;1999.90;999.90;;;;;;;;;;4896433;29;20657;-70
2023/05/29 14:24:59;;;;;;;1999.90;999.90;;;;;;;;;;4896757;29;20740;-71
2023/05/29 14:27:45;;;;;;;1999.90;999.90;;;;;;;;;;4896685;29;20204;-71
2023/05/29 14:30:30;;;;;;;1999.90;999.90;;;;;;;;;;4896526;29;20224;-71
2023/05/29 14:33:15;;;;;;;1999.90;999.90;;;;;;;;;;4896688;29;20220;-71
2023/05/29 14:36:00;;;;;;;1999.90;999.90;;;;;;;;;;4896691;29;20207;-71
2023/05/29 14:38:46;;;;;;;1999.90;999.90;;;;;;;;;;4896482;29;20341;-72
2023/05/29 14:41:31;;;;;;;1999.90;999.90;;;;;;;;;;4896358;29;20228;-71
2023/05/29 14:44:17;;;;;;;1999.90;999.90;;;;;;;;;;4897257;29;20348;-72
2023/05/29 14:47:02;;;;;;;1999.90;999.90;;;;;;;;;;4900368;29;20216;-70
2023/05/29 14:49:47;;;;;;;1999.90;999.90;;;;;;;;;;4900107;29;20213;-71
2023/05/29 14:52:32;;;;;;;1999.90;999.90;;;;;;;;;;4900335;29;20216;-71
2023/05/29 14:55:17;;;;;;;1999.90;999.90;;;;;;;;;;4900248;29;20215;-71
2023/05/29 14:58:02;;;;;;;1999.90;999.90;;;;;;;;;;4900198;29;20217;-71
2023/05/29 15:00:48;;;;;;;1999.90;999.90;;;;;;;;;;4899933;29;20236;-71
2023/05/29 15:03:35;;;;;;;1999.90;999.90;;;;;;;;;;4900131;29;20215;-71
2023/05/29 15:06:20;;;;;;;1999.90;999.90;;;;;;;;;;4898788;29;20417;-72
2023/05/29 15:09:05;;;;;;;1999.90;999.90;;;;;;;;;;4899806;29;20218;-71
2023/05/29 15:11:50;;;;;;;1999.90;999.90;;;;;;;;;;4899759;29;20313;-71
2023/05/29 15:14:35;;;;;;;1999.90;999.90;;;;;;;;;;4899960;29;20222;-71
2023/05/29 15:17:21;;;;;;;1999.90;999.90;;;;;;;;;;4899561;29;20581;-71
2023/05/29 15:20:07;;;;;;;1999.90;999.90;;;;;;;;;;4899579;29;20680;-72
2023/05/29 15:22:52;;;;;;;1999.90;999.90;;;;;;;;;;4899533;29;20222;-71
2023/05/29 15:25:37;;;;;;;1999.90;999.90;;;;;;;;;;4899742;29;20701;-71